EPZG

Zielona Góra-Babimost Airport

Babimost, Poland
METAR EPZG 251900Z 20002KT CAVOK 05/04 Q1038
Observed Flight Rules
Sep-25 @ 19:00 UTC (21 minutes ago) Visual Flight Rules
Wind Visibility Clouds
200° at 2 knots 10,000+ meters
  • Clear skies
Temperatures Readings
Current 5°C / 41°F
Dewpoint 4°C / 39°F
Humidity 93%
Altimeter 30.65" Hg
Pressure 1038 hPa
Elevation 59
METAR EPZG 251900Z 20002KT CAVOK 05/04 Q1038
Observed Flight Rules
Sep-25 @ 19:00 UTC
(21 minutes ago)
VFR
Wind Visibility
200° at 2 knots 10,000+ meters
Clouds
  • Clear skies
Temperature Dewpoint
5°C / 41°F 4°C / 39°F
Humidity Altimeter Pressure
93% 30.65" Hg 1038 hPa